sensor_id;sensor_type;location;lat;lon;timestamp;P1;durP1;ratioP1;P2;durP2;ratioP2
34697;SDS011;61391;50.922;6.928;2023-07-31T00:02:44;2.88;;;1.10;;
34697;SDS011;61391;50.922;6.928;2023-07-31T00:05:10;3.03;;;1.38;;
34697;SDS011;61391;50.922;6.928;2023-07-31T00:07:36;2.53;;;1.27;;
34697;SDS011;61391;50.922;6.928;2023-07-31T00:10:04;2.05;;;1.20;;
34697;SDS011;61391;50.922;6.928;2023-07-31T00:12:29;3.00;;;1.67;;
34697;SDS011;61391;50.922;6.928;2023-07-31T00:18:17;3.43;;;1.30;;
34697;SDS011;61391;50.922;6.928;2023-07-31T00:20:43;2.90;;;1.40;;
34697;SDS011;61391;50.922;6.928;2023-07-31T00:23:12;2.95;;;1.20;;
34697;SDS011;61391;50.922;6.928;2023-07-31T00:25:37;2.58;;;1.65;;
34697;SDS011;61391;50.922;6.928;2023-07-31T00:28:03;1.58;;;1.10;;
34697;SDS011;61391;50.922;6.928;2023-07-31T00:33:51;2.03;;;1.60;;
34697;SDS011;61391;50.922;6.928;2023-07-31T00:36:17;2.25;;;1.30;;
34697;SDS011;61391;50.922;6.928;2023-07-31T00:38:43;4.25;;;1.80;;
34697;SDS011;61391;50.922;6.928;2023-07-31T00:41:08;2.55;;;0.88;;
34697;SDS011;61391;50.922;6.928;2023-07-31T00:43:34;2.70;;;1.63;;
34697;SDS011;61391;50.922;6.928;2023-07-31T00:46:00;2.10;;;1.27;;
34697;SDS011;61391;50.922;6.928;2023-07-31T00:48:25;2.33;;;1.10;;
34697;SDS011;61391;50.922;6.928;2023-07-31T00:50:51;2.97;;;1.15;;
34697;SDS011;61391;50.922;6.928;2023-07-31T00:53:17;1.38;;;0.90;;
34697;SDS011;61391;50.922;6.928;2023-07-31T00:55:43;1.88;;;1.00;;
34697;SDS011;61391;50.922;6.928;2023-07-31T01:01:31;1.40;;;1.10;;
34697;SDS011;61391;50.922;6.928;2023-07-31T01:03:57;1.33;;;1.02;;
34697;SDS011;61391;50.922;6.928;2023-07-31T01:09:06;1.73;;;1.15;;
34697;SDS011;61391;50.922;6.928;2023-07-31T01:11:43;1.95;;;1.08;;
34697;SDS011;61391;50.922;6.928;2023-07-31T01:14:18;1.20;;;0.97;;
34697;SDS011;61391;50.922;6.928;2023-07-31T01:16:43;1.27;;;0.85;;
34697;SDS011;61391;50.922;6.928;2023-07-31T01:22:48;1.35;;;0.70;;
34697;SDS011;61391;50.922;6.928;2023-07-31T01:26:00;2.35;;;1.17;;
34697;SDS011;61391;50.922;6.928;2023-07-31T01:31:29;1.42;;;1.17;;
34697;SDS011;61391;50.922;6.928;2023-07-31T01:33:57;1.23;;;0.80;;
34697;SDS011;61391;50.922;6.928;2023-07-31T01:36:25;4.30;;;1.10;;
34697;SDS011;61391;50.922;6.928;2023-07-31T01:42:21;2.67;;;0.93;;
34697;SDS011;61391;50.922;6.928;2023-07-31T01:44:46;5.78;;;1.52;;
34697;SDS011;61391;50.922;6.928;2023-07-31T01:47:12;1.85;;;1.13;;
34697;SDS011;61391;50.922;6.928;2023-07-31T01:49:37;2.22;;;1.10;;
34697;SDS011;61391;50.922;6.928;2023-07-31T01:52:03;1.90;;;0.90;;
34697;SDS011;61391;50.922;6.928;2023-07-31T01:54:29;2.58;;;0.88;;
34697;SDS011;61391;50.922;6.928;2023-07-31T01:56:54;3.38;;;1.40;;
34697;SDS011;61391;50.922;6.928;2023-07-31T01:59:20;2.15;;;1.13;;
34697;SDS011;61391;50.922;6.928;2023-07-31T02:01:46;3.22;;;1.23;;
34697;SDS011;61391;50.922;6.928;2023-07-31T02:04:12;4.28;;;2.13;;
34697;SDS011;61391;50.922;6.928;2023-07-31T02:06:37;1.48;;;1.17;;
34697;SDS011;61391;50.922;6.928;2023-07-31T02:09:04;3.10;;;1.27;;
34697;SDS011;61391;50.922;6.928;2023-07-31T02:11:29;3.47;;;0.73;;
34697;SDS011;61391;50.922;6.928;2023-07-31T02:13:55;1.63;;;1.17;;
34697;SDS011;61391;50.922;6.928;2023-07-31T02:16:22;2.28;;;0.98;;
34697;SDS011;61391;50.922;6.928;2023-07-31T02:18:47;2.90;;;1.08;;
34697;SDS011;61391;50.922;6.928;2023-07-31T02:21:13;2.67;;;0.95;;
34697;SDS011;61391;50.922;6.928;2023-07-31T02:23:40;2.40;;;1.05;;
34697;SDS011;61391;50.922;6.928;2023-07-31T02:26:06;1.52;;;1.05;;
34697;SDS011;61391;50.922;6.928;2023-07-31T02:28:31;1.88;;;0.73;;
34697;SDS011;61391;50.922;6.928;2023-07-31T02:30:57;2.33;;;1.30;;
34697;SDS011;61391;50.922;6.928;2023-07-31T02:33:23;2.45;;;1.13;;
34697;SDS011;61391;50.922;6.928;2023-07-31T02:35:48;1.85;;;1.20;;
34697;SDS011;61391;50.922;6.928;2023-07-31T02:38:14;1.73;;;1.20;;
34697;SDS011;61391;50.922;6.928;2023-07-31T02:40:40;2.67;;;1.15;;
34697;SDS011;61391;50.922;6.928;2023-07-31T02:43:09;1.75;;;0.90;;
34697;SDS011;61391;50.922;6.928;2023-07-31T02:45:34;1.73;;;1.00;;
34697;SDS011;61391;50.922;6.928;2023-07-31T02:48:00;1.42;;;1.13;;
34697;SDS011;61391;50.922;6.928;2023-07-31T02:50:26;1.45;;;0.90;;
34697;SDS011;61391;50.922;6.928;2023-07-31T02:52:52;2.65;;;1.50;;
34697;SDS011;61391;50.922;6.928;2023-07-31T02:55:18;3.50;;;1.30;;
34697;SDS011;61391;50.922;6.928;2023-07-31T02:57:44;2.55;;;1.58;;
34697;SDS011;61391;50.922;6.928;2023-07-31T03:00:09;2.78;;;1.33;;
34697;SDS011;61391;50.922;6.928;2023-07-31T03:05:57;3.50;;;1.38;;
34697;SDS011;61391;50.922;6.928;2023-07-31T03:08:23;1.77;;;1.30;;
34697;SDS011;61391;50.922;6.928;2023-07-31T03:10:49;1.98;;;1.55;;
34697;SDS011;61391;50.922;6.928;2023-07-31T03:13:14;2.92;;;1.35;;
34697;SDS011;61391;50.922;6.928;2023-07-31T03:19:14;2.83;;;1.23;;
34697;SDS011;61391;50.922;6.928;2023-07-31T03:21:40;1.73;;;1.05;;
34697;SDS011;61391;50.922;6.928;2023-07-31T03:24:05;3.10;;;1.50;;
34697;SDS011;61391;50.922;6.928;2023-07-31T03:26:31;1.63;;;1.00;;
34697;SDS011;61391;50.922;6.928;2023-07-31T03:28:57;3.13;;;1.70;;
34697;SDS011;61391;50.922;6.928;2023-07-31T03:31:23;2.97;;;1.25;;
34697;SDS011;61391;50.922;6.928;2023-07-31T03:37:11;3.28;;;1.23;;
34697;SDS011;61391;50.922;6.928;2023-07-31T03:39:36;2.22;;;1.30;;
34697;SDS011;61391;50.922;6.928;2023-07-31T03:42:02;2.50;;;1.05;;
34697;SDS011;61391;50.922;6.928;2023-07-31T03:44:28;1.67;;;1.40;;
34697;SDS011;61391;50.922;6.928;2023-07-31T03:46:53;3.15;;;1.30;;
34697;SDS011;61391;50.922;6.928;2023-07-31T03:49:19;4.90;;;1.85;;
34697;SDS011;61391;50.922;6.928;2023-07-31T03:51:45;1.60;;;1.27;;
34697;SDS011;61391;50.922;6.928;2023-07-31T03:54:10;3.38;;;1.65;;
34697;SDS011;61391;50.922;6.928;2023-07-31T03:56:36;2.78;;;1.40;;
34697;SDS011;61391;50.922;6.928;2023-07-31T03:59:03;3.70;;;1.42;;
34697;SDS011;61391;50.922;6.928;2023-07-31T04:01:29;4.97;;;1.27;;
34697;SDS011;61391;50.922;6.928;2023-07-31T04:07:16;4.82;;;1.80;;
34697;SDS011;61391;50.922;6.928;2023-07-31T04:09:42;4.80;;;1.60;;
34697;SDS011;61391;50.922;6.928;2023-07-31T04:12:08;2.95;;;1.60;;
34697;SDS011;61391;50.922;6.928;2023-07-31T04:14:33;4.47;;;1.60;;
34697;SDS011;61391;50.922;6.928;2023-07-31T04:16:59;1.77;;;1.33;;
34697;SDS011;61391;50.922;6.928;2023-07-31T04:19:26;2.92;;;1.40;;
34697;SDS011;61391;50.922;6.928;2023-07-31T04:21:51;3.15;;;1.50;;
34697;SDS011;61391;50.922;6.928;2023-07-31T04:24:17;1.42;;;1.27;;
34697;SDS011;61391;50.922;6.928;2023-07-31T04:30:11;2.00;;;1.58;;
34697;SDS011;61391;50.922;6.928;2023-07-31T04:32:36;1.73;;;1.40;;
34697;SDS011;61391;50.922;6.928;2023-07-31T04:35:02;2.08;;;1.42;;
34697;SDS011;61391;50.922;6.928;2023-07-31T04:37:28;2.28;;;1.58;;
34697;SDS011;61391;50.922;6.928;2023-07-31T04:39:54;3.00;;;1.55;;
34697;SDS011;61391;50.922;6.928;2023-07-31T04:42:19;1.77;;;1.50;;
34697;SDS011;61391;50.922;6.928;2023-07-31T04:48:07;2.43;;;1.67;;
34697;SDS011;61391;50.922;6.928;2023-07-31T04:50:33;2.90;;;1.83;;
34697;SDS011;61391;50.922;6.928;2023-07-31T04:56:20;1.17;;;1.00;;
34697;SDS011;61391;50.922;6.928;2023-07-31T04:58:46;1.95;;;1.70;;
34697;SDS011;61391;50.922;6.928;2023-07-31T05:01:12;2.55;;;1.30;;
34697;SDS011;61391;50.922;6.928;2023-07-31T05:03:37;2.88;;;1.48;;
34697;SDS011;61391;50.922;6.928;2023-07-31T05:06:03;2.42;;;1.30;;
34697;SDS011;61391;50.922;6.928;2023-07-31T05:08:29;2.58;;;1.48;;
34697;SDS011;61391;50.922;6.928;2023-07-31T05:10:54;2.35;;;1.40;;
34697;SDS011;61391;50.922;6.928;2023-07-31T05:16:43;3.92;;;1.50;;
34697;SDS011;61391;50.922;6.928;2023-07-31T05:19:09;2.40;;;1.30;;
34697;SDS011;61391;50.922;6.928;2023-07-31T05:21:34;3.33;;;1.67;;
34697;SDS011;61391;50.922;6.928;2023-07-31T05:27:22;1.97;;;1.40;;
34697;SDS011;61391;50.922;6.928;2023-07-31T05:33:10;4.60;;;1.67;;
34697;SDS011;61391;50.922;6.928;2023-07-31T05:35:35;1.77;;;1.27;;
34697;SDS011;61391;50.922;6.928;2023-07-31T05:38:03;1.50;;;1.40;;
34697;SDS011;61391;50.922;6.928;2023-07-31T05:40:31;2.42;;;1.17;;
34697;SDS011;61391;50.922;6.928;2023-07-31T05:46:19;2.30;;;1.65;;
34697;SDS011;61391;50.922;6.928;2023-07-31T05:55:16;5.87;;;1.63;;
34697;SDS011;61391;50.922;6.928;2023-07-31T06:01:04;3.00;;;1.30;;
34697;SDS011;61391;50.922;6.928;2023-07-31T06:03:29;2.08;;;1.50;;
34697;SDS011;61391;50.922;6.928;2023-07-31T06:09:17;3.15;;;1.60;;
34697;SDS011;61391;50.922;6.928;2023-07-31T06:11:43;2.00;;;1.42;;
34697;SDS011;61391;50.922;6.928;2023-07-31T06:14:09;3.67;;;1.40;;
34697;SDS011;61391;50.922;6.928;2023-07-31T06:16:34;2.00;;;1.38;;
34697;SDS011;61391;50.922;6.928;2023-07-31T06:19:00;1.45;;;1.20;;
34697;SDS011;61391;50.922;6.928;2023-07-31T06:21:26;2.88;;;1.60;;
34697;SDS011;61391;50.922;6.928;2023-07-31T06:23:51;1.52;;;1.42;;
34697;SDS011;61391;50.922;6.928;2023-07-31T06:26:17;3.20;;;2.10;;
34697;SDS011;61391;50.922;6.928;2023-07-31T06:28:43;3.08;;;1.40;;
34697;SDS011;61391;50.922;6.928;2023-07-31T06:34:30;3.53;;;1.60;;
34697;SDS011;61391;50.922;6.928;2023-07-31T06:36:56;2.15;;;1.38;;
34697;SDS011;61391;50.922;6.928;2023-07-31T06:39:22;1.80;;;1.48;;
34697;SDS011;61391;50.922;6.928;2023-07-31T06:41:48;1.08;;;0.95;;
34697;SDS011;61391;50.922;6.928;2023-07-31T06:47:36;2.03;;;1.80;;
34697;SDS011;61391;50.922;6.928;2023-07-31T06:50:03;3.13;;;1.48;;
34697;SDS011;61391;50.922;6.928;2023-07-31T06:55:44;2.58;;;1.85;;
34697;SDS011;61391;50.922;6.928;2023-07-31T07:01:32;4.00;;;1.60;;
34697;SDS011;61391;50.922;6.928;2023-07-31T07:03:58;3.25;;;2.15;;
34697;SDS011;61391;50.922;6.928;2023-07-31T07:06:24;1.88;;;1.20;;
34697;SDS011;61391;50.922;6.928;2023-07-31T07:12:11;2.47;;;1.40;;
34697;SDS011;61391;50.922;6.928;2023-07-31T07:17:59;2.47;;;1.40;;
34697;SDS011;61391;50.922;6.928;2023-07-31T07:23:46;1.30;;;1.05;;
34697;SDS011;61391;50.922;6.928;2023-07-31T07:29:34;3.57;;;1.50;;
34697;SDS011;61391;50.922;6.928;2023-07-31T07:32:00;1.92;;;1.33;;
34697;SDS011;61391;50.922;6.928;2023-07-31T07:37:59;2.92;;;1.50;;
34697;SDS011;61391;50.922;6.928;2023-07-31T07:48:01;3.92;;;1.98;;
34697;SDS011;61391;50.922;6.928;2023-07-31T07:53:48;2.03;;;1.83;;
34697;SDS011;61391;50.922;6.928;2023-07-31T07:59:36;2.78;;;1.50;;
34697;SDS011;61391;50.922;6.928;2023-07-31T08:02:06;3.92;;;1.20;;
34697;SDS011;61391;50.922;6.928;2023-07-31T08:04:34;2.20;;;1.50;;
34697;SDS011;61391;50.922;6.928;2023-07-31T08:10:26;1.75;;;1.35;;
34697;SDS011;61391;50.922;6.928;2023-07-31T08:13:10;2.30;;;1.10;;
34697;SDS011;61391;50.922;6.928;2023-07-31T08:15:42;1.10;;;0.93;;
34697;SDS011;61391;50.922;6.928;2023-07-31T08:21:33;1.77;;;1.20;;
34697;SDS011;61391;50.922;6.928;2023-07-31T08:25:09;0.85;;;0.85;;
34697;SDS011;61391;50.922;6.928;2023-07-31T08:27:28;1.52;;;1.00;;
34697;SDS011;61391;50.922;6.928;2023-07-31T08:29:53;2.88;;;1.40;;
34697;SDS011;61391;50.922;6.928;2023-07-31T08:35:41;3.00;;;1.23;;
34697;SDS011;61391;50.922;6.928;2023-07-31T08:45:08;7.57;;;2.00;;
34697;SDS011;61391;50.922;6.928;2023-07-31T08:50:58;2.05;;;1.15;;
34697;SDS011;61391;50.922;6.928;2023-07-31T08:53:25;4.18;;;1.27;;
34697;SDS011;61391;50.922;6.928;2023-07-31T08:56:00;2.33;;;0.80;;
34697;SDS011;61391;50.922;6.928;2023-07-31T08:58:30;2.25;;;0.98;;
34697;SDS011;61391;50.922;6.928;2023-07-31T09:04:19;2.70;;;1.20;;
34697;SDS011;61391;50.922;6.928;2023-07-31T09:10:09;2.17;;;1.57;;
34697;SDS011;61391;50.922;6.928;2023-07-31T09:12:36;2.22;;;1.55;;
34697;SDS011;61391;50.922;6.928;2023-07-31T09:15:03;3.45;;;1.67;;
34697;SDS011;61391;50.922;6.928;2023-07-31T09:17:29;2.33;;;1.20;;
34697;SDS011;61391;50.922;6.928;2023-07-31T09:19:56;2.50;;;1.52;;
34697;SDS011;61391;50.922;6.928;2023-07-31T09:22:31;1.55;;;1.10;;
34697;SDS011;61391;50.922;6.928;2023-07-31T09:25:19;3.03;;;0.98;;
34697;SDS011;61391;50.922;6.928;2023-07-31T09:27:48;1.15;;;0.82;;
34697;SDS011;61391;50.922;6.928;2023-07-31T09:30:18;3.20;;;1.30;;
34697;SDS011;61391;50.922;6.928;2023-07-31T09:32:45;2.13;;;1.52;;
34697;SDS011;61391;50.922;6.928;2023-07-31T09:35:21;1.27;;;1.10;;
34697;SDS011;61391;50.922;6.928;2023-07-31T09:37:56;3.05;;;1.20;;
34697;SDS011;61391;50.922;6.928;2023-07-31T09:43:59;4.17;;;1.67;;
34697;SDS011;61391;50.922;6.928;2023-07-31T09:46:28;3.53;;;1.55;;
34697;SDS011;61391;50.922;6.928;2023-07-31T09:49:16;2.22;;;1.33;;
34697;SDS011;61391;50.922;6.928;2023-07-31T09:51:42;2.25;;;1.10;;
34697;SDS011;61391;50.922;6.928;2023-07-31T09:57:31;1.40;;;0.90;;
34697;SDS011;61391;50.922;6.928;2023-07-31T10:00:00;1.52;;;0.80;;
34697;SDS011;61391;50.922;6.928;2023-07-31T10:02:26;1.77;;;1.20;;
34697;SDS011;61391;50.922;6.928;2023-07-31T10:04:58;1.10;;;0.85;;
34697;SDS011;61391;50.922;6.928;2023-07-31T10:10:49;2.58;;;1.15;;
34697;SDS011;61391;50.922;6.928;2023-07-31T10:13:16;2.85;;;1.10;;
34697;SDS011;61391;50.922;6.928;2023-07-31T10:15:43;2.72;;;0.80;;
34697;SDS011;61391;50.922;6.928;2023-07-31T10:18:10;1.75;;;1.10;;
34697;SDS011;61391;50.922;6.928;2023-07-31T10:20:38;1.13;;;0.93;;
34697;SDS011;61391;50.922;6.928;2023-07-31T10:23:05;1.58;;;1.40;;
34697;SDS011;61391;50.922;6.928;2023-07-31T10:25:31;2.05;;;1.00;;
34697;SDS011;61391;50.922;6.928;2023-07-31T10:27:59;2.97;;;1.23;;
34697;SDS011;61391;50.922;6.928;2023-07-31T10:30:26;1.45;;;1.05;;
34697;SDS011;61391;50.922;6.928;2023-07-31T10:32:54;1.25;;;0.95;;
34697;SDS011;61391;50.922;6.928;2023-07-31T10:35:21;1.48;;;0.98;;
34697;SDS011;61391;50.922;6.928;2023-07-31T10:37:50;2.88;;;1.05;;
34697;SDS011;61391;50.922;6.928;2023-07-31T10:40:18;1.38;;;0.98;;
34697;SDS011;61391;50.922;6.928;2023-07-31T10:42:55;1.35;;;1.08;;
34697;SDS011;61391;50.922;6.928;2023-07-31T10:48:45;1.17;;;0.90;;
34697;SDS011;61391;50.922;6.928;2023-07-31T10:51:24;1.05;;;0.80;;
34697;SDS011;61391;50.922;6.928;2023-07-31T10:57:21;1.20;;;0.87;;
34697;SDS011;61391;50.922;6.928;2023-07-31T10:59:50;2.08;;;0.65;;
34697;SDS011;61391;50.922;6.928;2023-07-31T11:02:26;1.08;;;0.65;;
34697;SDS011;61391;50.922;6.928;2023-07-31T11:05:10;0.63;;;0.50;;
34697;SDS011;61391;50.922;6.928;2023-07-31T11:13:27;0.68;;;0.50;;
34697;SDS011;61391;50.922;6.928;2023-07-31T11:15:53;0.50;;;0.50;;
34697;SDS011;61391;50.922;6.928;2023-07-31T11:18:19;0.75;;;0.60;;
34697;SDS011;61391;50.922;6.928;2023-07-31T11:20:44;0.95;;;0.60;;
34697;SDS011;61391;50.922;6.928;2023-07-31T11:23:11;0.70;;;0.50;;
34697;SDS011;61391;50.922;6.928;2023-07-31T11:25:39;0.50;;;0.40;;
34697;SDS011;61391;50.922;6.928;2023-07-31T11:28:14;0.40;;;0.35;;
34697;SDS011;61391;50.922;6.928;2023-07-31T11:30:41;0.40;;;0.30;;
34697;SDS011;61391;50.922;6.928;2023-07-31T11:33:08;0.20;;;0.20;;
34697;SDS011;61391;50.922;6.928;2023-07-31T11:39:04;0.38;;;0.22;;
34697;SDS011;61391;50.922;6.928;2023-07-31T11:41:33;0.55;;;0.50;;
34697;SDS011;61391;50.922;6.928;2023-07-31T11:43:59;0.45;;;0.30;;
34697;SDS011;61391;50.922;6.928;2023-07-31T11:46:26;0.30;;;0.30;;
34697;SDS011;61391;50.922;6.928;2023-07-31T11:48:51;0.15;;;0.10;;
34697;SDS011;61391;50.922;6.928;2023-07-31T11:51:25;0.52;;;0.30;;
34697;SDS011;61391;50.922;6.928;2023-07-31T11:57:14;1.10;;;0.40;;
34697;SDS011;61391;50.922;6.928;2023-07-31T11:59:40;0.80;;;0.57;;
34697;SDS011;61391;50.922;6.928;2023-07-31T12:02:06;0.50;;;0.20;;
34697;SDS011;61391;50.922;6.928;2023-07-31T12:04:32;0.40;;;0.30;;
34697;SDS011;61391;50.922;6.928;2023-07-31T12:06:59;0.30;;;0.30;;
34697;SDS011;61391;50.922;6.928;2023-07-31T12:09:28;0.38;;;0.38;;
34697;SDS011;61391;50.922;6.928;2023-07-31T12:15:16;1.50;;;0.40;;
34697;SDS011;61391;50.922;6.928;2023-07-31T12:17:42;1.17;;;0.40;;
34697;SDS011;61391;50.922;6.928;2023-07-31T12:20:07;0.38;;;0.30;;
34697;SDS011;61391;50.922;6.928;2023-07-31T12:22:34;0.43;;;0.30;;
34697;SDS011;61391;50.922;6.928;2023-07-31T12:25:00;0.30;;;0.30;;
34697;SDS011;61391;50.922;6.928;2023-07-31T12:27:32;0.40;;;0.30;;
34697;SDS011;61391;50.922;6.928;2023-07-31T12:29:58;0.20;;;0.20;;
34697;SDS011;61391;50.922;6.928;2023-07-31T12:32:24;0.22;;;0.22;;
34697;SDS011;61391;50.922;6.928;2023-07-31T12:34:50;0.47;;;0.40;;
34697;SDS011;61391;50.922;6.928;2023-07-31T12:37:16;0.43;;;0.35;;
34697;SDS011;61391;50.922;6.928;2023-07-31T12:39:42;0.30;;;0.30;;
34697;SDS011;61391;50.922;6.928;2023-07-31T12:42:08;0.73;;;0.50;;
34697;SDS011;61391;50.922;6.928;2023-07-31T12:44:33;0.57;;;0.57;;
34697;SDS011;61391;50.922;6.928;2023-07-31T12:46:59;0.98;;;0.60;;
34697;SDS011;61391;50.922;6.928;2023-07-31T12:49:25;0.80;;;0.80;;
34697;SDS011;61391;50.922;6.928;2023-07-31T12:51:50;0.68;;;0.50;;
34697;SDS011;61391;50.922;6.928;2023-07-31T12:54:16;1.60;;;0.60;;
34697;SDS011;61391;50.922;6.928;2023-07-31T12:56:41;0.95;;;0.75;;
34697;SDS011;61391;50.922;6.928;2023-07-31T12:59:08;1.20;;;0.57;;
34697;SDS011;61391;50.922;6.928;2023-07-31T13:04:55;1.20;;;0.82;;
34697;SDS011;61391;50.922;6.928;2023-07-31T13:07:21;1.20;;;0.85;;
34697;SDS011;61391;50.922;6.928;2023-07-31T13:09:47;1.15;;;0.80;;
34697;SDS011;61391;50.922;6.928;2023-07-31T13:12:13;0.80;;;0.80;;
34697;SDS011;61391;50.922;6.928;2023-07-31T13:18:01;1.17;;;1.00;;
34697;SDS011;61391;50.922;6.928;2023-07-31T13:20:27;1.13;;;1.00;;
34697;SDS011;61391;50.922;6.928;2023-07-31T13:22:52;1.30;;;0.90;;
34697;SDS011;61391;50.922;6.928;2023-07-31T13:25:18;1.85;;;1.15;;
34697;SDS011;61391;50.922;6.928;2023-07-31T13:27:50;1.40;;;1.05;;
34697;SDS011;61391;50.922;6.928;2023-07-31T13:30:16;1.02;;;0.80;;
34697;SDS011;61391;50.922;6.928;2023-07-31T13:32:43;1.20;;;0.90;;
34697;SDS011;61391;50.922;6.928;2023-07-31T13:35:09;1.30;;;0.93;;
34697;SDS011;61391;50.922;6.928;2023-07-31T13:37:36;1.10;;;0.70;;
34697;SDS011;61391;50.922;6.928;2023-07-31T13:40:02;6.05;;;1.25;;
34697;SDS011;61391;50.922;6.928;2023-07-31T13:42:30;2.20;;;0.95;;
34697;SDS011;61391;50.922;6.928;2023-07-31T13:48:20;1.50;;;0.82;;
34697;SDS011;61391;50.922;6.928;2023-07-31T13:50:46;2.80;;;1.20;;
34697;SDS011;61391;50.922;6.928;2023-07-31T13:53:12;1.50;;;0.98;;
34697;SDS011;61391;50.922;6.928;2023-07-31T13:55:39;1.67;;;1.20;;
34697;SDS011;61391;50.922;6.928;2023-07-31T13:58:05;0.80;;;0.70;;
34697;SDS011;61391;50.922;6.928;2023-07-31T14:00:30;1.38;;;0.70;;
34697;SDS011;61391;50.922;6.928;2023-07-31T14:03:01;1.27;;;1.05;;
34697;SDS011;61391;50.922;6.928;2023-07-31T14:05:27;1.00;;;0.80;;
34697;SDS011;61391;50.922;6.928;2023-07-31T14:07:52;1.42;;;0.90;;
34697;SDS011;61391;50.922;6.928;2023-07-31T14:10:21;1.25;;;0.80;;
34697;SDS011;61391;50.922;6.928;2023-07-31T14:12:48;1.00;;;0.52;;
34697;SDS011;61391;50.922;6.928;2023-07-31T14:15:14;0.98;;;0.88;;
34697;SDS011;61391;50.922;6.928;2023-07-31T14:17:40;1.60;;;0.95;;
34697;SDS011;61391;50.922;6.928;2023-07-31T14:20:08;2.53;;;0.95;;
34697;SDS011;61391;50.922;6.928;2023-07-31T14:22:34;1.08;;;0.90;;
34697;SDS011;61391;50.922;6.928;2023-07-31T14:25:01;1.95;;;0.82;;
34697;SDS011;61391;50.922;6.928;2023-07-31T14:27:27;1.10;;;0.82;;
34697;SDS011;61391;50.922;6.928;2023-07-31T14:29:52;0.95;;;0.80;;
34697;SDS011;61391;50.922;6.928;2023-07-31T14:32:18;1.55;;;1.00;;
34697;SDS011;61391;50.922;6.928;2023-07-31T14:34:44;1.30;;;1.20;;
34697;SDS011;61391;50.922;6.928;2023-07-31T14:40:53;1.43;;;1.10;;
34697;SDS011;61391;50.922;6.928;2023-07-31T14:43:19;1.23;;;1.10;;
34697;SDS011;61391;50.922;6.928;2023-07-31T14:45:46;1.85;;;1.20;;
34697;SDS011;61391;50.922;6.928;2023-07-31T14:48:12;1.00;;;0.80;;
34697;SDS011;61391;50.922;6.928;2023-07-31T15:00:45;1.53;;;1.20;;
34697;SDS011;61391;50.922;6.928;2023-07-31T15:03:10;1.40;;;0.90;;
34697;SDS011;61391;50.922;6.928;2023-07-31T15:08:59;1.47;;;1.10;;
34697;SDS011;61391;50.922;6.928;2023-07-31T15:11:25;1.35;;;0.80;;
34697;SDS011;61391;50.922;6.928;2023-07-31T15:17:17;1.47;;;1.23;;
34697;SDS011;61391;50.922;6.928;2023-07-31T15:20:15;2.15;;;1.45;;
34697;SDS011;61391;50.922;6.928;2023-07-31T15:22:41;1.42;;;1.20;;
34697;SDS011;61391;50.922;6.928;2023-07-31T15:35:25;1.75;;;1.35;;
34697;SDS011;61391;50.922;6.928;2023-07-31T15:37:51;2.70;;;1.50;;
34697;SDS011;61391;50.922;6.928;2023-07-31T15:43:41;2.95;;;1.73;;
34697;SDS011;61391;50.922;6.928;2023-07-31T15:49:29;2.20;;;1.27;;
34697;SDS011;61391;50.922;6.928;2023-07-31T15:51:54;1.45;;;1.08;;
34697;SDS011;61391;50.922;6.928;2023-07-31T15:58:01;2.28;;;1.23;;
34697;SDS011;61391;50.922;6.928;2023-07-31T16:04:10;1.30;;;1.10;;
34697;SDS011;61391;50.922;6.928;2023-07-31T16:06:37;4.93;;;1.98;;
34697;SDS011;61391;50.922;6.928;2023-07-31T16:12:25;2.50;;;1.50;;
34697;SDS011;61391;50.922;6.928;2023-07-31T16:14:51;2.25;;;1.45;;
34697;SDS011;61391;50.922;6.928;2023-07-31T16:20:39;3.87;;;1.20;;
34697;SDS011;61391;50.922;6.928;2023-07-31T16:23:05;2.13;;;0.90;;
34697;SDS011;61391;50.922;6.928;2023-07-31T16:25:32;1.58;;;1.17;;
34697;SDS011;61391;50.922;6.928;2023-07-31T16:31:22;1.80;;;1.20;;
34697;SDS011;61391;50.922;6.928;2023-07-31T16:33:48;1.63;;;1.20;;
34697;SDS011;61391;50.922;6.928;2023-07-31T16:42:33;1.40;;;1.20;;
34697;SDS011;61391;50.922;6.928;2023-07-31T16:48:21;1.88;;;1.33;;
34697;SDS011;61391;50.922;6.928;2023-07-31T16:50:46;2.45;;;1.40;;
34697;SDS011;61391;50.922;6.928;2023-07-31T16:53:14;2.38;;;1.20;;
34697;SDS011;61391;50.922;6.928;2023-07-31T16:59:01;2.58;;;1.23;;
34697;SDS011;61391;50.922;6.928;2023-07-31T17:01:27;1.80;;;1.55;;
34697;SDS011;61391;50.922;6.928;2023-07-31T17:03:57;1.42;;;1.33;;
34697;SDS011;61391;50.922;6.928;2023-07-31T17:09:46;1.48;;;0.95;;
34697;SDS011;61391;50.922;6.928;2023-07-31T17:12:12;1.42;;;1.33;;
34697;SDS011;61391;50.922;6.928;2023-07-31T17:14:38;1.08;;;0.90;;
34697;SDS011;61391;50.922;6.928;2023-07-31T17:17:03;2.42;;;1.40;;
34697;SDS011;61391;50.922;6.928;2023-07-31T17:22:51;2.00;;;1.33;;
34697;SDS011;61391;50.922;6.928;2023-07-31T17:28:39;2.30;;;1.48;;
34697;SDS011;61391;50.922;6.928;2023-07-31T17:31:05;1.55;;;1.30;;
34697;SDS011;61391;50.922;6.928;2023-07-31T17:33:31;2.00;;;1.20;;
34697;SDS011;61391;50.922;6.928;2023-07-31T17:39:19;4.60;;;2.00;;
34697;SDS011;61391;50.922;6.928;2023-07-31T17:45:07;4.03;;;1.30;;
34697;SDS011;61391;50.922;6.928;2023-07-31T17:47:33;2.33;;;1.60;;
34697;SDS011;61391;50.922;6.928;2023-07-31T17:53:20;4.10;;;1.58;;
34697;SDS011;61391;50.922;6.928;2023-07-31T17:59:08;1.15;;;1.02;;
34697;SDS011;61391;50.922;6.928;2023-07-31T18:04:57;1.90;;;1.38;;
34697;SDS011;61391;50.922;6.928;2023-07-31T18:07:23;1.65;;;1.42;;
34697;SDS011;61391;50.922;6.928;2023-07-31T18:09:48;2.30;;;1.33;;
34697;SDS011;61391;50.922;6.928;2023-07-31T18:21:49;1.93;;;1.13;;
34697;SDS011;61391;50.922;6.928;2023-07-31T18:24:15;1.02;;;0.70;;
34697;SDS011;61391;50.922;6.928;2023-07-31T18:26:41;1.77;;;1.10;;
34697;SDS011;61391;50.922;6.928;2023-07-31T18:32:29;1.88;;;1.33;;
34697;SDS011;61391;50.922;6.928;2023-07-31T18:34:54;1.80;;;0.88;;
34697;SDS011;61391;50.922;6.928;2023-07-31T18:37:21;1.60;;;0.88;;
34697;SDS011;61391;50.922;6.928;2023-07-31T18:43:10;2.22;;;0.57;;
34697;SDS011;61391;50.922;6.928;2023-07-31T18:45:36;2.05;;;0.70;;
34697;SDS011;61391;50.922;6.928;2023-07-31T18:48:02;1.35;;;0.73;;
34697;SDS011;61391;50.922;6.928;2023-07-31T18:50:28;0.60;;;0.50;;
34697;SDS011;61391;50.922;6.928;2023-07-31T18:52:54;0.60;;;0.50;;
34697;SDS011;61391;50.922;6.928;2023-07-31T18:55:19;0.65;;;0.47;;
34697;SDS011;61391;50.922;6.928;2023-07-31T18:57:45;0.65;;;0.50;;
34697;SDS011;61391;50.922;6.928;2023-07-31T19:03:34;0.82;;;0.47;;
34697;SDS011;61391;50.922;6.928;2023-07-31T19:06:07;0.57;;;0.50;;
34697;SDS011;61391;50.922;6.928;2023-07-31T19:08:36;0.63;;;0.57;;
34697;SDS011;61391;50.922;6.928;2023-07-31T19:11:01;1.88;;;0.60;;
34697;SDS011;61391;50.922;6.928;2023-07-31T19:13:32;0.60;;;0.40;;
34697;SDS011;61391;50.922;6.928;2023-07-31T19:19:21;0.40;;;0.27;;
34697;SDS011;61391;50.922;6.928;2023-07-31T19:21:46;0.57;;;0.50;;
34697;SDS011;61391;50.922;6.928;2023-07-31T19:24:12;1.02;;;0.50;;
34697;SDS011;61391;50.922;6.928;2023-07-31T19:26:38;0.73;;;0.55;;
34697;SDS011;61391;50.922;6.928;2023-07-31T19:29:07;0.80;;;0.55;;
34697;SDS011;61391;50.922;6.928;2023-07-31T19:34:59;0.67;;;0.60;;
34697;SDS011;61391;50.922;6.928;2023-07-31T19:40:46;1.25;;;0.93;;
34697;SDS011;61391;50.922;6.928;2023-07-31T19:43:12;0.77;;;0.52;;
34697;SDS011;61391;50.922;6.928;2023-07-31T19:45:38;0.98;;;0.50;;
34697;SDS011;61391;50.922;6.928;2023-07-31T19:48:04;0.52;;;0.50;;
34697;SDS011;61391;50.922;6.928;2023-07-31T19:50:29;1.02;;;0.50;;
34697;SDS011;61391;50.922;6.928;2023-07-31T19:52:57;0.55;;;0.55;;
34697;SDS011;61391;50.922;6.928;2023-07-31T19:55:22;0.95;;;0.30;;
34697;SDS011;61391;50.922;6.928;2023-07-31T19:57:48;0.30;;;0.30;;
34697;SDS011;61391;50.922;6.928;2023-07-31T20:00:14;0.30;;;0.22;;
34697;SDS011;61391;50.922;6.928;2023-07-31T20:02:46;2.13;;;0.40;;